Time;durP1;ratioP1;P1;durP2;ratioP2;P2;SDS_P1;SDS_P2;PMS_P1;PMS_P2;Temp;Humidity;BMP_temperature;BMP_pressure;BME280_temperature;BME280_humidity;BME280_pressure;Samples;Min_cycle;Max_cycle;Signal;HPM_P1;HPM_P2
2021/01/02 00:01:35;;;;;;;1999.90;999.90;;;;;;;1.71;80.63;97866.06;5062851;28;20504;-65
2021/01/02 00:04:13;;;;;;;1999.90;999.90;;;;;;;1.65;80.59;97867.19;5053074;28;20053;-66
2021/01/02 00:07:11;;;;;;;1999.90;999.90;;;;;;;1.77;80.65;97870.38;5068361;28;20067;-67
2021/01/02 00:09:43;;;;;;;1999.90;999.90;;;;;;;1.82;80.27;97872.31;5047011;28;20378;-67
2021/01/02 00:12:46;;;;;;;1999.90;999.90;;;;;;;1.83;79.88;97871.19;5048724;28;20044;-67
2021/01/02 00:15:21;;;;;;;1999.90;999.90;;;;;;;1.90;79.27;97868.97;5055156;28;20436;-67
2021/01/02 00:18:11;;;;;;;1999.90;999.90;;;;;;;1.90;79.14;97877.16;5060758;28;20110;-67
2021/01/02 00:20:47;;;;;;;1999.90;999.90;;;;;;;1.88;79.09;97880.16;5053094;28;20444;-66
2021/01/02 00:23:36;;;;;;;1999.90;999.90;;;;;;;1.96;78.66;97878.75;5056849;28;20121;-65
2021/01/02 00:26:14;;;;;;;1999.90;999.90;;;;;;;1.96;78.42;97883.41;5062616;28;20043;-65
2021/01/02 00:28:46;;;;;;;1999.90;999.90;;;;;;;1.96;78.62;97881.47;5057508;28;20079;-65
2021/01/02 00:31:35;;;;;;;1999.90;999.90;;;;;;;1.99;78.70;97878.19;5069580;28;20044;-65
2021/01/02 00:34:38;;;;;;;1999.90;999.90;;;;;;;2.06;78.61;97881.44;5055482;28;20041;-65
2021/01/02 00:37:16;;;;;;;1999.90;999.90;;;;;;;1.49;80.75;97897.22;5069842;28;20060;-65
2021/01/02 00:40:07;;;;;;;1999.90;999.90;;;;;;;1.07;81.45;97892.94;5066835;28;20044;-65
2021/01/02 00:42:35;;;;;;;1999.90;999.90;;;;;;;1.05;82.66;97898.66;5056808;28;20049;-65
2021/01/02 00:45:04;;;;;;;1999.90;999.90;;;;;;;1.32;81.72;97902.97;5061905;28;20044;-65
2021/01/02 00:47:33;;;;;;;1999.90;999.90;;;;;;;1.56;80.96;97895.03;5045020;28;20114;-65
2021/01/02 00:50:00;;;;;;;1999.90;999.90;;;;;;;1.81;80.61;97897.91;5071275;28;20074;-65
2021/01/02 00:52:44;;;;;;;1999.90;999.90;;;;;;;2.00;79.78;97890.75;5052037;28;20114;-65
2021/01/02 00:55:22;;;;;;;1999.90;999.90;;;;;;;2.11;80.05;97891.50;5059315;28;20094;-65
2021/01/02 00:57:48;;;;;;;1999.90;999.90;;;;;;;2.19;80.11;97903.72;5056286;28;20627;-65
2021/01/02 01:00:24;;;;;;;1999.90;999.90;;;;;;;2.16;80.17;97904.28;5067016;28;20059;-66
2021/01/02 01:03:01;;;;;;;1999.90;999.90;;;;;;;2.08;81.13;97901.06;5052161;28;20057;-67
2021/01/02 01:05:35;;;;;;;1999.90;999.90;;;;;;;1.84;81.67;97905.53;5057739;28;20048;-67
2021/01/02 01:08:03;;;;;;;1999.90;999.90;;;;;;;1.81;82.48;97904.19;5058758;28;20044;-67
2021/01/02 01:10:32;;;;;;;1999.90;999.90;;;;;;;1.99;81.70;97904.66;5051664;28;20049;-65
2021/01/02 01:13:20;;;;;;;1999.90;999.90;;;;;;;1.85;81.82;97912.63;5052372;28;20041;-65
2021/01/02 01:15:48;;;;;;;1999.90;999.90;;;;;;;1.60;83.17;97902.66;5051091;28;20460;-65
2021/01/02 01:18:17;;;;;;;1999.90;999.90;;;;;;;2.07;81.97;97907.63;5060152;28;20040;-65
2021/01/02 01:20:45;;;;;;;1999.90;999.90;;;;;;;1.61;82.82;97910.53;5051083;28;20122;-65
2021/01/02 01:23:36;;;;;;;1999.90;999.90;;;;;;;2.00;81.85;97901.66;5051823;28;20049;-65
2021/01/02 01:26:29;;;;;;;1999.90;999.90;;;;;;;1.99;82.07;97910.09;5056484;28;20489;-65
2021/01/02 01:28:58;;;;;;;1999.90;999.90;;;;;;;1.79;82.25;97913.72;5050180;28;20053;-66
2021/01/02 01:31:29;;;;;;;1999.90;999.90;;;;;;;1.63;83.16;97918.44;5051497;28;20511;-66
2021/01/02 01:34:00;;;;;;;1999.90;999.90;;;;;;;1.71;82.82;97910.50;5054959;28;20052;-66
2021/01/02 01:36:34;;;;;;;1999.90;999.90;;;;;;;0.98;85.70;97919.94;5058833;28;20469;-66
2021/01/02 01:39:04;;;;;;;1999.90;999.90;;;;;;;1.45;84.66;97917.13;5054790;28;20040;-66
2021/01/02 01:41:35;;;;;;;1999.90;999.90;;;;;;;1.96;82.75;97910.66;5056749;28;20057;-66
2021/01/02 01:44:10;;;;;;;1999.90;999.90;;;;;;;1.60;83.83;97914.34;5057380;28;20043;-66
2021/01/02 01:46:50;;;;;;;1999.90;999.90;;;;;;;1.70;83.54;97922.50;5064851;28;20107;-66
2021/01/02 01:49:31;;;;;;;1999.90;999.90;;;;;;;1.90;82.42;97912.59;5047526;28;20441;-66
2021/01/02 01:52:05;;;;;;;1999.90;999.90;;;;;;;1.30;84.63;97921.53;5056801;28;20044;-66
2021/01/02 01:55:07;;;;;;;1999.90;999.90;;;;;;;1.71;83.70;97915.13;5051770;28;20048;-66
2021/01/02 01:57:39;;;;;;;1999.90;999.90;;;;;;;2.03;82.82;97914.72;5054148;28;20049;-66
2021/01/02 02:00:14;;;;;;;1999.90;999.90;;;;;;;1.71;83.00;97915.13;5064862;28;20481;-66
2021/01/02 02:02:46;;;;;;;1999.90;999.90;;;;;;;1.11;85.27;97912.28;5056429;28;20829;-66
2021/01/02 02:05:16;;;;;;;1999.90;999.90;;;;;;;1.05;85.96;97916.91;5049814;28;20551;-66
2021/01/02 02:08:01;;;;;;;1999.90;999.90;;;;;;;0.95;85.07;97912.28;5050832;28;20264;-66
2021/01/02 02:10:50;;;;;;;1999.90;999.90;;;;;;;0.66;87.66;97912.84;5058169;28;20425;-66
2021/01/02 02:13:28;;;;;;;1999.90;999.90;;;;;;;0.60;87.23;97913.94;5049860;28;20098;-66
2021/01/02 02:15:56;;;;;;;1999.90;999.90;;;;;;;0.34;89.79;97911.19;5056305;28;20468;-66
2021/01/02 02:18:27;;;;;;;1999.90;999.90;;;;;;;0.38;89.52;97921.53;5055691;28;20473;-66
2021/01/02 02:20:55;;;;;;;1999.90;999.90;;;;;;;0.98;87.90;97913.66;5050699;28;20052;-66
2021/01/02 02:23:43;;;;;;;1999.90;999.90;;;;;;;1.05;87.92;97909.56;5058275;28;20049;-66
2021/01/02 02:26:18;;;;;;;1999.90;999.90;;;;;;;1.21;86.66;97895.94;5052067;28;20095;-66
2021/01/02 02:28:50;;;;;;;1999.90;999.90;;;;;;;1.23;87.27;97896.47;5051424;28;20474;-67
2021/01/02 02:31:17;;;;;;;1999.90;999.90;;;;;;;1.66;85.85;97891.44;5058749;28;20056;-65
2021/01/02 02:34:01;;;;;;;1999.90;999.90;;;;;;;1.65;84.55;97897.97;5057553;28;20052;-66
2021/01/02 02:36:32;;;;;;;1999.90;999.90;;;;;;;1.25;85.70;97888.84;5051732;28;20082;-65
2021/01/02 02:39:10;;;;;;;1999.90;999.90;;;;;;;1.07;87.36;97890.22;5055012;28;20044;-65
2021/01/02 02:41:42;;;;;;;1999.90;999.90;;;;;;;0.83;88.86;97900.88;5056877;28;20457;-65
2021/01/02 02:44:10;;;;;;;1999.90;999.90;;;;;;;0.99;88.40;97896.25;5052474;28;20413;-65
2021/01/02 02:46:43;;;;;;;1999.90;999.90;;;;;;;0.66;89.40;97898.44;5050201;28;20056;-65
2021/01/02 02:49:12;;;;;;;1999.90;999.90;;;;;;;1.27;88.41;97904.91;5052655;28;20044;-65
2021/01/02 02:51:47;;;;;;;1999.90;999.90;;;;;;;1.22;87.61;97901.09;5060438;28;20089;-66
2021/01/02 02:54:13;;;;;;;1999.90;999.90;;;;;;;1.50;86.55;97903.47;5065232;28;20102;-66
2021/01/02 02:56:40;;;;;;;1999.90;999.90;;;;;;;1.01;88.77;97892.16;5057238;28;20110;-66
2021/01/02 02:59:06;;;;;;;1999.90;999.90;;;;;;;1.25;87.42;97907.91;5052482;28;20049;-66
2021/01/02 03:01:32;;;;;;;1999.90;999.90;;;;;;;0.81;89.27;97897.63;5052311;28;20049;-66
2021/01/02 03:03:58;;;;;;;1999.90;999.90;;;;;;;1.30;88.88;97894.28;5056678;28;20104;-66
2021/01/02 03:06:29;;;;;;;1999.90;999.90;;;;;;;1.87;86.10;97891.34;5063739;28;20509;-66
2021/01/02 03:08:56;;;;;;;1999.90;999.90;;;;;;;1.64;85.80;97900.97;5056762;28;20498;-66
2021/01/02 03:11:24;;;;;;;1999.90;999.90;;;;;;;1.75;86.33;97895.19;5062627;28;20071;-66
2021/01/02 03:13:52;;;;;;;1999.90;999.90;;;;;;;1.94;85.42;97902.78;5058640;28;20056;-66
2021/01/02 03:16:19;;;;;;;1999.90;999.90;;;;;;;1.67;85.92;97893.06;5056237;28;20044;-66
2021/01/02 03:18:46;;;;;;;1999.90;999.90;;;;;;;1.96;85.24;97895.13;5060411;28;20496;-66
2021/01/02 03:21:12;;;;;;;1999.90;999.90;;;;;;;1.75;85.68;97895.19;5054350;28;20049;-66
2021/01/02 03:23:49;;;;;;;1999.90;999.90;;;;;;;1.33;88.60;97892.91;5061257;28;20072;-66
2021/01/02 03:26:17;;;;;;;1999.90;999.90;;;;;;;1.60;87.18;97898.00;5079357;28;20596;-67
2021/01/02 03:28:52;;;;;;;1999.90;999.90;;;;;;;1.00;90.37;97901.41;5066981;28;20504;-66
2021/01/02 03:31:19;;;;;;;1999.90;999.90;;;;;;;0.59;91.62;97897.88;5054978;28;20051;-66
2021/01/02 03:33:46;;;;;;;1999.90;999.90;;;;;;;-0.36;96.15;97911.53;5068018;28;20052;-66
2021/01/02 03:36:13;;;;;;;1999.90;999.90;;;;;;;0.57;95.28;97895.44;5061964;28;20048;-66
2021/01/02 03:38:40;;;;;;;1999.90;999.90;;;;;;;1.25;91.50;97891.56;5061432;28;20086;-66
2021/01/02 03:41:06;;;;;;;1999.90;999.90;;;;;;;-0.05;95.24;97897.22;5059624;28;20075;-66
2021/01/02 03:43:35;;;;;;;1999.90;999.90;;;;;;;-0.09;98.14;97910.56;5049150;28;20114;-66
2021/01/02 03:46:02;;;;;;;1999.90;999.90;;;;;;;1.21;93.91;97895.94;5051062;28;20049;-66
2021/01/02 03:48:28;;;;;;;1999.90;999.90;;;;;;;1.82;89.61;97905.81;5052508;28;20053;-66
2021/01/02 03:50:54;;;;;;;1999.90;999.90;;;;;;;1.78;88.79;97910.19;5050896;28;20065;-66
2021/01/02 03:53:21;;;;;;;1999.90;999.90;;;;;;;2.03;87.42;97901.09;5059703;28;20106;-66
2021/01/02 03:55:47;;;;;;;1999.90;999.90;;;;;;;2.33;86.28;97904.72;5052067;28;20111;-66
2021/01/02 03:58:13;;;;;;;1999.90;999.90;;;;;;;2.05;86.33;97904.34;5053870;28;20459;-66
2021/01/02 04:00:40;;;;;;;1999.90;999.90;;;;;;;1.56;88.33;97908.66;5053806;28;20049;-66
2021/01/02 04:03:06;;;;;;;1999.90;999.90;;;;;;;1.96;87.57;97905.22;5056009;28;20051;-66
2021/01/02 04:05:34;;;;;;;1999.90;999.90;;;;;;;1.76;86.99;97901.50;5056781;28;20502;-66
2021/01/02 04:08:02;;;;;;;1999.90;999.90;;;;;;;1.90;88.43;97916.13;5054088;28;20053;-66
2021/01/02 04:10:28;;;;;;;1999.90;999.90;;;;;;;1.75;87.24;97908.84;5052423;28;20140;-66
2021/01/02 04:12:54;;;;;;;1999.90;999.90;;;;;;;2.08;86.77;97898.34;5052912;28;20049;-67
2021/01/02 04:15:20;;;;;;;1999.90;999.90;;;;;;;0.94;91.27;97902.50;5051085;28;20044;-67
2021/01/02 04:17:47;;;;;;;1999.90;999.90;;;;;;;1.88;89.11;97898.44;5055748;28;20060;-67
2021/01/02 04:20:14;;;;;;;1999.90;999.90;;;;;;;2.43;86.20;97904.66;5052467;28;20048;-67
2021/01/02 04:22:40;;;;;;;1999.90;999.90;;;;;;;1.57;87.46;97890.38;5058437;28;20613;-67
2021/01/02 04:25:06;;;;;;;1999.90;999.90;;;;;;;1.03;90.22;97898.13;5073207;28;20101;-67
2021/01/02 04:27:32;;;;;;;1999.90;999.90;;;;;;;1.32;91.25;97902.97;5059951;28;20108;-66
2021/01/02 04:29:58;;;;;;;1999.90;999.90;;;;;;;1.80;88.65;97904.47;5059550;28;20044;-66
2021/01/02 04:32:24;;;;;;;1999.90;999.90;;;;;;;1.70;89.42;97897.97;5045497;28;20554;-66
2021/01/02 04:34:50;;;;;;;1999.90;999.90;;;;;;;0.90;91.08;97904.13;5063145;28;20052;-66
2021/01/02 04:37:17;;;;;;;1999.90;999.90;;;;;;;1.48;90.89;97906.47;5057731;28;20052;-66
2021/01/02 04:39:43;;;;;;;1999.90;999.90;;;;;;;1.21;90.29;97909.56;5059542;28;20040;-67
2021/01/02 04:42:09;;;;;;;1999.90;999.90;;;;;;;1.75;89.24;97914.28;5074293;28;20051;-66
2021/01/02 04:44:35;;;;;;;1999.90;999.90;;;;;;;1.39;90.05;97917.13;5067460;28;20571;-67
2021/01/02 04:47:02;;;;;;;1999.90;999.90;;;;;;;1.49;90.16;97924.47;5060111;28;20048;-67
2021/01/02 04:49:28;;;;;;;1999.90;999.90;;;;;;;1.72;89.67;97916.75;5060714;28;20049;-67
2021/01/02 04:52:01;;;;;;;1999.90;999.90;;;;;;;1.94;88.54;97917.22;5076108;28;20226;-67
2021/01/02 04:54:27;;;;;;;1999.90;999.90;;;;;;;1.83;88.57;97922.97;5062783;28;20052;-67
2021/01/02 04:56:54;;;;;;;1999.90;999.90;;;;;;;1.64;89.43;97923.63;5064507;28;20082;-67
2021/01/02 04:59:26;;;;;;;1999.90;999.90;;;;;;;1.89;89.18;97921.88;5070240;28;20049;-67
2021/01/02 05:01:54;;;;;;;1999.90;999.90;;;;;;;1.80;88.46;97929.81;5067306;28;20536;-67
2021/01/02 05:04:21;;;;;;;1999.90;999.90;;;;;;;1.84;88.75;97935.53;5057949;28;20423;-67
2021/01/02 05:06:48;;;;;;;1999.90;999.90;;;;;;;2.09;87.89;97934.59;5058481;28;20059;-67
2021/01/02 05:09:14;;;;;;;1999.90;999.90;;;;;;;2.07;88.19;97926.72;5052172;28;20044;-67
2021/01/02 05:11:40;;;;;;;1999.90;999.90;;;;;;;1.75;87.73;97936.09;5070458;28;20559;-67
2021/01/02 05:14:07;;;;;;;1999.90;999.90;;;;;;;1.89;88.02;97930.03;5067403;28;20048;-67
2021/01/02 05:19:06;;;;;;;1999.90;999.90;;;;;;;1.87;88.33;97946.69;5065288;28;20634;-67
2021/01/02 05:21:35;;;;;;;1999.90;999.90;;;;;;;2.19;87.31;97950.94;5061062;28;20554;-67
2021/01/02 05:24:01;;;;;;;1999.90;999.90;;;;;;;2.18;86.54;97959.41;5063664;28;20127;-67
2021/01/02 05:26:28;;;;;;;1999.90;999.90;;;;;;;2.21;86.71;97950.66;5052909;28;20056;-67
2021/01/02 05:29:19;;;;;;;1999.90;999.90;;;;;;;1.85;88.42;97957.06;5057327;28;20041;-67
2021/01/02 05:32:01;;;;;;;1999.90;999.90;;;;;;;2.04;87.84;97956.44;5054001;28;20469;-67
2021/01/02 05:34:29;;;;;;;1999.90;999.90;;;;;;;2.24;87.22;97961.00;5045345;28;20504;-66
2021/01/02 05:37:08;;;;;;;1999.90;999.90;;;;;;;1.84;88.19;97960.06;5058562;28;20067;-66
2021/01/02 05:39:37;;;;;;;1999.90;999.90;;;;;;;1.52;89.91;97967.53;5056663;28;20051;-67
2021/01/02 05:42:04;;;;;;;1999.90;999.90;;;;;;;1.84;88.43;97970.97;5067415;28;20105;-66
2021/01/02 05:44:34;;;;;;;1999.90;999.90;;;;;;;1.85;88.52;97959.00;5063655;28;20400;-67
2021/01/02 05:47:01;;;;;;;1999.90;999.90;;;;;;;1.83;88.73;97962.00;5062154;28;20052;-67
2021/01/02 05:49:27;;;;;;;1999.90;999.90;;;;;;;2.27;87.96;97952.25;5054523;28;20045;-67
2021/01/02 05:52:03;;;;;;;1999.90;999.90;;;;;;;2.26;86.96;97954.16;5055401;28;20056;-67
2021/01/02 05:54:30;;;;;;;1999.90;999.90;;;;;;;2.55;85.96;97960.81;5067074;28;20091;-67
2021/01/02 05:57:05;;;;;;;1999.90;999.90;;;;;;;2.61;85.98;97960.50;5055589;28;20049;-67
2021/01/02 05:59:37;;;;;;;1999.90;999.90;;;;;;;2.46;86.11;97952.41;5056238;28;20037;-67
2021/01/02 06:02:33;;;;;;;;;;;;;;;2.35;86.99;97953.56;5057123;28;20048;-67
2021/01/02 06:05:10;;;;;;;1999.90;999.90;;;;;;;2.72;85.50;97966.69;5048386;28;20395;-67
2021/01/02 06:07:38;;;;;;;1999.90;999.90;;;;;;;2.50;85.88;97963.56;5060859;28;20525;-67
2021/01/02 06:10:09;;;;;;;1999.90;999.90;;;;;;;1.97;87.73;97956.75;5062828;28;20468;-67
2021/01/02 06:12:39;;;;;;;1999.90;999.90;;;;;;;2.06;88.48;97957.00;5064754;28;20098;-67
2021/01/02 06:15:14;;;;;;;1999.90;999.90;;;;;;;2.03;88.38;97952.09;5067690;28;20056;-67
2021/01/02 06:17:42;;;;;;;1999.90;999.90;;;;;;;2.58;86.79;97950.16;5067360;28;20308;-67
2021/01/02 06:20:11;;;;;;;1999.90;999.90;;;;;;;2.38;86.81;97956.56;5058239;28;20045;-67
2021/01/02 06:22:42;;;;;;;1999.90;999.90;;;;;;;1.87;88.19;97957.59;5055978;28;20044;-67
2021/01/02 06:25:11;;;;;;;1999.90;999.90;;;;;;;1.76;90.04;97951.38;5069959;28;20570;-67
2021/01/02 06:27:39;;;;;;;1999.90;999.90;;;;;;;2.68;87.49;97960.19;5058941;28;20414;-67
2021/01/02 06:30:06;;;;;;;1999.90;999.90;;;;;;;2.85;85.52;97967.19;5054099;28;20444;-67
2021/01/02 06:32:32;;;;;;;1999.90;999.90;;;;;;;2.51;86.08;97959.75;5057953;28;20482;-67
2021/01/02 06:35:07;;;;;;;1999.90;999.90;;;;;;;2.71;85.98;97965.09;5059237;28;20049;-67
2021/01/02 06:37:49;;;;;;;1999.90;999.90;;;;;;;2.93;85.49;97972.84;5049543;28;20045;-67
2021/01/02 06:40:22;;;;;;;1999.90;999.90;;;;;;;3.06;84.80;97976.03;5056924;28;20049;-67
2021/01/02 06:42:55;;;;;;;1999.90;999.90;;;;;;;2.89;85.32;97977.25;5051100;28;20052;-67
2021/01/02 06:45:40;;;;;;;1999.90;999.90;;;;;;;3.11;84.75;97965.88;5049602;28;20098;-67
2021/01/02 06:48:24;;;;;;;1999.90;999.90;;;;;;;3.02;84.93;97974.97;5060425;28;20056;-67
2021/01/02 06:50:56;;;;;;;1999.90;999.90;;;;;;;2.98;85.43;97980.19;5058513;28;20421;-67
2021/01/02 06:53:22;;;;;;;;;;;;;;;2.98;85.15;97977.47;5060907;28;20048;-67
2021/01/02 06:55:59;;;;;;;1999.90;999.90;;;;;;;3.16;84.70;97987.69;5065575;28;19966;-67
2021/01/02 06:58:42;;;;;;;1999.90;999.90;;;;;;;3.28;84.08;97976.38;5053409;28;20128;-67
2021/01/02 07:01:29;;;;;;;1999.90;999.90;;;;;;;2.54;85.98;97972.84;5054726;28;20044;-67
2021/01/02 07:03:58;;;;;;;1999.90;999.90;;;;;;;3.16;85.50;97987.69;5058833;28;20052;-65
2021/01/02 07:06:25;;;;;;;1999.90;999.90;;;;;;;3.42;84.26;97984.72;5063736;28;20052;-65
2021/01/02 07:09:02;;;;;;;1999.90;999.90;;;;;;;2.82;85.83;97977.56;5058977;28;20044;-66
2021/01/02 07:11:43;;;;;;;1999.90;999.90;;;;;;;2.87;86.15;97973.97;5060768;28;20485;-66
2021/01/02 07:14:12;;;;;;;1999.90;999.90;;;;;;;2.62;87.32;97977.69;5051048;28;20486;-66
2021/01/02 07:16:45;;;;;;;1999.90;999.90;;;;;;;3.00;86.63;97986.19;5061725;28;20079;-66
2021/01/02 07:19:26;;;;;;;1999.90;999.90;;;;;;;2.97;86.21;97984.00;5057304;28;20051;-66
2021/01/02 07:22:11;;;;;;;1999.90;999.90;;;;;;;3.07;85.40;97989.41;5056228;28;20044;-66
2021/01/02 07:24:51;;;;;;;1999.90;999.90;;;;;;;3.30;85.26;97989.75;5046953;28;20059;-66
2021/01/02 07:27:28;;;;;;;1999.90;999.90;;;;;;;2.71;86.71;97986.94;5061272;28;20044;-66
2021/01/02 07:29:56;;;;;;;1999.90;999.90;;;;;;;2.57;87.66;97997.66;5061954;28;20296;-66
2021/01/02 07:32:23;;;;;;;1999.90;999.90;;;;;;;3.10;86.03;97988.03;5057544;28;20110;-66
2021/01/02 07:34:59;;;;;;;1999.90;999.90;;;;;;;3.44;85.00;97998.94;5063996;28;20118;-66
2021/01/02 07:37:32;;;;;;;1999.90;999.90;;;;;;;3.34;84.63;97994.34;5060382;28;20089;-66
2021/01/02 07:40:00;;;;;;;1999.90;999.90;;;;;;;2.95;85.75;98000.69;5061253;28;20094;-66
2021/01/02 07:42:30;;;;;;;1999.90;999.90;;;;;;;2.67;86.48;97993.25;5060766;28;20053;-66
2021/01/02 07:45:12;;;;;;;1999.90;999.90;;;;;;;2.59;88.21;98002.81;5067360;28;20048;-66
2021/01/02 07:47:45;;;;;;;1999.90;999.90;;;;;;;2.25;89.05;98004.38;5062834;28;20456;-66
2021/01/02 07:50:14;;;;;;;1999.90;999.90;;;;;;;2.72;88.37;97994.00;5057702;28;20099;-66
2021/01/02 07:52:47;;;;;;;1999.90;999.90;;;;;;;2.77;87.33;97995.88;5060462;28;20056;-66
2021/01/02 07:55:14;;;;;;;1999.90;999.90;;;;;;;2.90;87.33;98005.38;5056145;28;20129;-66
2021/01/02 07:57:40;;;;;;;1999.90;999.90;;;;;;;3.44;85.24;98009.88;5058760;28;20118;-66
2021/01/02 08:00:10;;;;;;;1999.90;999.90;;;;;;;3.18;85.43;98010.06;5067459;28;20095;-66
2021/01/02 08:02:42;;;;;;;1999.90;999.90;;;;;;;2.11;89.32;98014.25;5064436;28;20436;-66
2021/01/02 08:05:14;;;;;;;1999.90;999.90;;;;;;;2.43;89.51;98013.84;5060100;28;20052;-66
2021/01/02 08:07:41;;;;;;;1999.90;999.90;;;;;;;3.05;87.12;98008.00;5067008;28;20045;-66
2021/01/02 08:10:12;;;;;;;1999.90;999.90;;;;;;;3.27;86.28;98014.94;5066558;28;20079;-66
2021/01/02 08:12:47;;;;;;;1999.90;999.90;;;;;;;3.26;85.22;98011.38;5069055;28;20053;-66
2021/01/02 08:15:17;;;;;;;1999.90;999.90;;;;;;;2.99;86.64;98020.03;5060490;28;20057;-66
2021/01/02 08:17:44;;;;;;;1999.90;999.90;;;;;;;3.40;85.95;98019.72;5063390;28;20260;-66
2021/01/02 08:20:11;;;;;;;1999.90;999.90;;;;;;;3.33;85.51;98020.09;5062325;28;20383;-66
2021/01/02 08:22:38;;;;;;;1999.90;999.90;;;;;;;3.28;85.65;98024.75;5070576;28;20090;-66
2021/01/02 08:25:10;;;;;;;1999.90;999.90;;;;;;;3.01;86.41;98028.78;5069857;28;20048;-66
2021/01/02 08:27:37;;;;;;;1999.90;999.90;;;;;;;2.41;88.85;98029.69;5057839;28;20575;-66
2021/01/02 08:30:06;;;;;;;1999.90;999.90;;;;;;;2.79;88.76;98021.81;5063297;28;20052;-66
2021/01/02 08:32:35;;;;;;;1999.90;999.90;;;;;;;3.21;87.23;98027.00;5057570;28;20052;-66
2021/01/02 08:35:01;;;;;;;1999.90;999.90;;;;;;;3.65;85.43;98028.81;5068147;28;20484;-66
2021/01/02 08:37:28;;;;;;;1999.90;999.90;;;;;;;3.21;85.94;98027.00;5063785;28;20511;-66
2021/01/02 08:40:09;;;;;;;1999.90;999.90;;;;;;;3.25;87.01;98033.53;5062184;28;20484;-66
2021/01/02 08:42:39;;;;;;;1999.90;999.90;;;;;;;3.70;85.90;98028.75;5060235;28;20520;-66
2021/01/02 08:45:08;;;;;;;1999.90;999.90;;;;;;;3.76;85.05;98032.25;5053031;28;20279;-66
2021/01/02 08:47:36;;;;;;;1999.90;999.90;;;;;;;3.95;84.69;98046.84;5056084;28;20048;-66
2021/01/02 08:50:15;;;;;;;1999.90;999.90;;;;;;;3.87;84.20;98052.91;5059216;28;20097;-66
2021/01/02 08:52:43;;;;;;;1999.90;999.90;;;;;;;3.41;85.48;98051.44;5062458;28;20049;-66
2021/01/02 08:55:17;;;;;;;1999.90;999.90;;;;;;;3.83;84.97;98049.97;5064877;28;20049;-66
2021/01/02 08:57:51;;;;;;;1999.90;999.90;;;;;;;3.33;86.36;98052.03;5050950;28;20056;-66
2021/01/02 09:00:30;;;;;;;1999.90;999.90;;;;;;;3.59;85.30;98049.91;5059156;28;20477;-66
2021/01/02 09:03:07;;;;;;;1999.90;999.90;;;;;;;3.23;85.95;98052.94;5063462;28;20048;-66
2021/01/02 09:05:35;;;;;;;1999.90;999.90;;;;;;;3.40;86.87;98052.53;5066176;28;20075;-66
2021/01/02 09:08:07;;;;;;;1999.90;999.90;;;;;;;3.38;86.69;98049.28;5060492;28;20080;-66
2021/01/02 09:10:34;;;;;;;1999.90;999.90;;;;;;;3.38;86.04;98048.44;5066434;28;20051;-66
2021/01/02 09:13:16;;;;;;;1999.90;999.90;;;;;;;2.91;89.92;98039.78;5063407;28;20060;-66
2021/01/02 09:15:56;;;;;;;1999.90;999.90;;;;;;;3.30;87.89;98045.22;5064668;28;20044;-66
2021/01/02 09:18:28;;;;;;;1999.90;999.90;;;;;;;3.65;87.24;98045.22;5059189;28;20056;-66
2021/01/02 09:21:09;;;;;;;1999.90;999.90;;;;;;;4.03;85.50;98048.94;5055809;28;20048;-67
2021/01/02 09:23:54;;;;;;;1999.90;999.90;;;;;;;3.93;85.35;98048.22;5063679;28;20047;-67
2021/01/02 09:26:32;;;;;;;1999.90;999.90;;;;;;;4.31;84.78;98048.38;5057599;28;20052;-66
2021/01/02 09:29:00;;;;;;;1999.90;999.90;;;;;;;4.29;84.13;98051.38;5060203;28;20053;-66
2021/01/02 09:31:27;;;;;;;1999.90;999.90;;;;;;;3.72;86.44;98048.41;5061617;28;20534;-66
2021/01/02 09:33:54;;;;;;;1999.90;999.90;;;;;;;3.64;86.95;98041.66;5066832;28;20386;-66
2021/01/02 09:36:21;;;;;;;1999.90;999.90;;;;;;;3.85;87.39;98046.94;5056562;28;20048;-67
2021/01/02 09:38:49;;;;;;;1999.90;999.90;;;;;;;4.38;85.28;98037.88;5074274;28;20420;-67
2021/01/02 09:41:21;;;;;;;1999.90;999.90;;;;;;;4.46;84.69;98036.41;5060645;28;20052;-67
2021/01/02 09:43:48;;;;;;;1999.90;999.90;;;;;;;4.16;86.54;98033.72;5054674;28;20052;-66
2021/01/02 09:46:18;;;;;;;1999.90;999.90;;;;;;;4.80;84.51;98038.16;5055189;28;20057;-66
2021/01/02 09:48:50;;;;;;;1999.90;999.90;;;;;;;4.93;83.76;98032.75;5062292;28;20052;-66
2021/01/02 09:51:18;;;;;;;1999.90;999.90;;;;;;;4.84;83.64;98034.53;5060105;28;20102;-66
2021/01/02 09:53:44;;;;;;;1999.90;999.90;;;;;;;4.74;84.26;98034.66;5056618;28;20055;-66
2021/01/02 09:56:10;;;;;;;1999.90;999.90;;;;;;;4.88;83.73;98021.88;5060825;28;20483;-66
2021/01/02 09:58:36;;;;;;;1999.90;999.90;;;;;;;4.69;84.63;98032.81;5066147;28;20090;-66
2021/01/02 10:01:04;;;;;;;1999.90;999.90;;;;;;;5.16;84.03;98032.94;5055723;28;20452;-66
2021/01/02 10:03:30;;;;;;;1999.90;999.90;;;;;;;5.43;83.26;98028.69;5063692;28;20040;-66
2021/01/02 10:05:56;;;;;;;1999.90;999.90;;;;;;;5.63;82.40;98022.84;5058657;28;20049;-66
2021/01/02 10:08:23;;;;;;;1999.90;999.90;;;;;;;4.73;84.20;98036.59;5062488;28;20044;-66
2021/01/02 10:10:51;;;;;;;1999.90;999.90;;;;;;;4.55;86.69;98027.22;5060850;28;20037;-66
2021/01/02 10:13:17;;;;;;;1999.90;999.90;;;;;;;5.18;84.43;98027.16;5063442;28;20052;-67
2021/01/02 10:15:43;;;;;;;1999.90;999.90;;;;;;;5.12;84.16;98026.44;5048486;28;20049;-67
2021/01/02 10:18:10;;;;;;;1999.90;999.90;;;;;;;5.14;84.64;98023.41;5058152;28;20052;-67
2021/01/02 10:20:36;;;;;;;1999.90;999.90;;;;;;;5.13;85.56;98022.59;5064971;28;20051;-66
2021/01/02 10:23:02;;;;;;;1999.90;999.90;;;;;;;5.17;85.18;98026.38;5054784;28;20041;-67
2021/01/02 10:25:29;;;;;;;1999.90;999.90;;;;;;;5.49;84.02;98019.25;5051290;28;20052;-67
2021/01/02 10:27:55;;;;;;;1999.90;999.90;;;;;;;5.49;83.38;98011.03;5051073;28;20524;-67
2021/01/02 10:30:22;;;;;;;1999.90;999.90;;;;;;;5.07;85.14;98021.03;5050957;28;20544;-67
2021/01/02 10:32:48;;;;;;;1999.90;999.90;;;;;;;5.12;84.83;98012.72;5051023;28;20410;-67
2021/01/02 10:35:16;;;;;;;1999.90;999.90;;;;;;;4.76;86.76;98013.25;5055737;28;20045;-67
2021/01/02 10:37:44;;;;;;;1999.90;999.90;;;;;;;3.99;89.76;98019.69;5050101;28;20041;-67
2021/01/02 10:40:11;;;;;;;1999.90;999.90;;;;;;;4.33;89.00;98014.13;5055700;28;20095;-67
2021/01/02 10:42:37;;;;;;;1999.90;999.90;;;;;;;4.92;86.99;98011.94;5055416;28;20638;-67
2021/01/02 10:45:05;;;;;;;1999.90;999.90;;;;;;;5.18;85.76;98011.56;5056018;28;20048;-67
2021/01/02 10:47:31;;;;;;;1999.90;999.90;;;;;;;5.12;84.95;98007.25;5059352;28;20049;-67
2021/01/02 10:49:58;;;;;;;1999.90;999.90;;;;;;;5.61;84.12;97996.84;5060307;28;20051;-67
2021/01/02 10:52:27;;;;;;;1999.90;999.90;;;;;;;5.42;84.02;98007.88;5065640;28;20048;-67
2021/01/02 10:54:54;;;;;;;1999.90;999.90;;;;;;;5.28;85.78;97994.09;5051080;28;20432;-67
2021/01/02 10:57:24;;;;;;;1999.90;999.90;;;;;;;5.89;83.71;97994.16;5061739;28;20049;-67
2021/01/02 10:59:52;;;;;;;1999.90;999.90;;;;;;;5.63;83.82;97995.44;5051692;28;20132;-67
2021/01/02 11:02:19;;;;;;;1999.90;999.90;;;;;;;5.96;83.25;97992.63;5059896;28;20200;-67
2021/01/02 11:04:46;;;;;;;1999.90;999.90;;;;;;;6.40;81.75;97989.59;5052727;28;20064;-67
2021/01/02 11:07:13;;;;;;;1999.90;999.90;;;;;;;6.23;81.53;97990.22;5057463;28;20048;-67
2021/01/02 11:09:39;;;;;;;1999.90;999.90;;;;;;;6.23;81.61;97988.28;5051261;28;20098;-67
2021/01/02 11:12:05;;;;;;;1999.90;999.90;;;;;;;6.12;82.51;97990.44;5065025;28;20129;-67
2021/01/02 11:14:32;;;;;;;1999.90;999.90;;;;;;;5.99;82.42;97991.25;5054077;28;20497;-67
2021/01/02 11:16:58;;;;;;;1999.90;999.90;;;;;;;6.08;82.78;97991.34;5060685;28;20521;-67
2021/01/02 11:19:27;;;;;;;1999.90;999.90;;;;;;;5.79;83.73;97992.38;5057354;28;20501;-67
2021/01/02 11:22:00;;;;;;;1999.90;999.90;;;;;;;6.30;82.41;97988.69;5062998;28;20048;-67
2021/01/02 11:24:30;;;;;;;1999.90;999.90;;;;;;;5.84;82.92;97981.34;5065240;28;20056;-67